sensor_id;sensor_type;location;lat;lon;timestamp;P1;durP1;ratioP1;P2;durP2;ratioP2
769;SDS011;368;48.698;9.116;2022-12-04T00:01:54;49.00;;;25.07;;
769;SDS011;368;48.698;9.116;2022-12-04T00:04:21;43.87;;;27.00;;
769;SDS011;368;48.698;9.116;2022-12-04T00:06:48;46.17;;;26.30;;
769;SDS011;368;48.698;9.116;2022-12-04T00:09:14;43.40;;;25.20;;
769;SDS011;368;48.698;9.116;2022-12-04T00:11:41;46.10;;;26.30;;
769;SDS011;368;48.698;9.116;2022-12-04T00:14:08;41.63;;;25.53;;
769;SDS011;368;48.698;9.116;2022-12-04T00:16:38;43.63;;;26.10;;
769;SDS011;368;48.698;9.116;2022-12-04T00:19:04;39.87;;;23.80;;
769;SDS011;368;48.698;9.116;2022-12-04T00:21:31;44.97;;;27.43;;
769;SDS011;368;48.698;9.116;2022-12-04T00:23:58;43.23;;;25.57;;
769;SDS011;368;48.698;9.116;2022-12-04T00:26:26;43.67;;;25.63;;
769;SDS011;368;48.698;9.116;2022-12-04T00:28:55;42.53;;;25.10;;
769;SDS011;368;48.698;9.116;2022-12-04T00:31:22;42.67;;;24.43;;
769;SDS011;368;48.698;9.116;2022-12-04T00:33:52;40.93;;;24.43;;
769;SDS011;368;48.698;9.116;2022-12-04T00:36:20;41.70;;;23.53;;
769;SDS011;368;48.698;9.116;2022-12-04T00:38:48;42.87;;;24.67;;
769;SDS011;368;48.698;9.116;2022-12-04T00:41:15;42.83;;;24.00;;
769;SDS011;368;48.698;9.116;2022-12-04T00:43:44;41.53;;;24.90;;
769;SDS011;368;48.698;9.116;2022-12-04T00:46:11;41.37;;;24.30;;
769;SDS011;368;48.698;9.116;2022-12-04T00:48:38;42.90;;;25.13;;
769;SDS011;368;48.698;9.116;2022-12-04T00:51:07;38.57;;;23.37;;
769;SDS011;368;48.698;9.116;2022-12-04T00:53:35;39.00;;;25.50;;
769;SDS011;368;48.698;9.116;2022-12-04T00:56:03;40.07;;;24.07;;
769;SDS011;368;48.698;9.116;2022-12-04T00:58:30;42.07;;;24.90;;
769;SDS011;368;48.698;9.116;2022-12-04T01:01:00;40.00;;;23.37;;
769;SDS011;368;48.698;9.116;2022-12-04T01:03:28;37.30;;;23.73;;
769;SDS011;368;48.698;9.116;2022-12-04T01:05:55;41.40;;;23.70;;
769;SDS011;368;48.698;9.116;2022-12-04T01:08:23;37.27;;;24.50;;
769;SDS011;368;48.698;9.116;2022-12-04T01:10:50;40.07;;;25.17;;
769;SDS011;368;48.698;9.116;2022-12-04T01:13:17;35.23;;;23.30;;
769;SDS011;368;48.698;9.116;2022-12-04T01:15:44;36.70;;;23.03;;
769;SDS011;368;48.698;9.116;2022-12-04T01:18:11;31.00;;;20.63;;
769;SDS011;368;48.698;9.116;2022-12-04T01:20:39;35.53;;;23.20;;
769;SDS011;368;48.698;9.116;2022-12-04T01:23:11;34.40;;;21.70;;
769;SDS011;368;48.698;9.116;2022-12-04T01:25:39;33.07;;;22.17;;
769;SDS011;368;48.698;9.116;2022-12-04T01:28:06;32.23;;;21.57;;
769;SDS011;368;48.698;9.116;2022-12-04T01:30:33;33.40;;;22.50;;
769;SDS011;368;48.698;9.116;2022-12-04T01:33:00;29.40;;;20.17;;
769;SDS011;368;48.698;9.116;2022-12-04T01:35:26;31.33;;;22.10;;
769;SDS011;368;48.698;9.116;2022-12-04T01:37:53;31.47;;;21.50;;
769;SDS011;368;48.698;9.116;2022-12-04T01:40:20;33.73;;;22.23;;
769;SDS011;368;48.698;9.116;2022-12-04T01:42:48;26.57;;;19.90;;
769;SDS011;368;48.698;9.116;2022-12-04T01:45:33;36.57;;;22.80;;
769;SDS011;368;48.698;9.116;2022-12-04T01:48:06;30.00;;;21.20;;
769;SDS011;368;48.698;9.116;2022-12-04T01:50:36;34.00;;;22.13;;
769;SDS011;368;48.698;9.116;2022-12-04T01:53:03;35.93;;;21.00;;
769;SDS011;368;48.698;9.116;2022-12-04T01:55:30;35.30;;;23.17;;
769;SDS011;368;48.698;9.116;2022-12-04T01:57:59;34.67;;;22.20;;
769;SDS011;368;48.698;9.116;2022-12-04T02:00:26;29.37;;;21.00;;
769;SDS011;368;48.698;9.116;2022-12-04T02:02:53;32.67;;;23.37;;
769;SDS011;368;48.698;9.116;2022-12-04T02:05:21;34.33;;;21.97;;
769;SDS011;368;48.698;9.116;2022-12-04T02:07:50;34.30;;;21.50;;
769;SDS011;368;48.698;9.116;2022-12-04T02:10:20;38.10;;;23.80;;
769;SDS011;368;48.698;9.116;2022-12-04T02:12:53;34.30;;;23.73;;
769;SDS011;368;48.698;9.116;2022-12-04T02:15:28;31.93;;;23.03;;
769;SDS011;368;48.698;9.116;2022-12-04T02:18:02;31.83;;;21.17;;
769;SDS011;368;48.698;9.116;2022-12-04T02:20:35;34.53;;;22.83;;
769;SDS011;368;48.698;9.116;2022-12-04T02:26:18;36.90;;;23.80;;
769;SDS011;368;48.698;9.116;2022-12-04T02:29:01;34.57;;;23.63;;
769;SDS011;368;48.698;9.116;2022-12-04T02:31:33;35.90;;;24.70;;
769;SDS011;368;48.698;9.116;2022-12-04T02:34:04;35.90;;;24.60;;
769;SDS011;368;48.698;9.116;2022-12-04T02:36:39;37.63;;;24.17;;
769;SDS011;368;48.698;9.116;2022-12-04T02:39:13;35.23;;;22.03;;
769;SDS011;368;48.698;9.116;2022-12-04T02:41:49;33.90;;;22.80;;
769;SDS011;368;48.698;9.116;2022-12-04T02:44:22;35.90;;;21.87;;
769;SDS011;368;48.698;9.116;2022-12-04T02:46:54;39.37;;;24.83;;
769;SDS011;368;48.698;9.116;2022-12-04T02:49:25;34.90;;;22.20;;
769;SDS011;368;48.698;9.116;2022-12-04T02:51:56;35.20;;;20.70;;
769;SDS011;368;48.698;9.116;2022-12-04T02:54:26;34.00;;;22.10;;
769;SDS011;368;48.698;9.116;2022-12-04T02:56:56;31.97;;;20.63;;
769;SDS011;368;48.698;9.116;2022-12-04T02:59:28;35.10;;;21.17;;
769;SDS011;368;48.698;9.116;2022-12-04T03:01:59;32.33;;;20.47;;
769;SDS011;368;48.698;9.116;2022-12-04T03:04:31;31.87;;;21.67;;
769;SDS011;368;48.698;9.116;2022-12-04T03:06:59;32.43;;;22.17;;
769;SDS011;368;48.698;9.116;2022-12-04T03:09:31;34.83;;;21.33;;
769;SDS011;368;48.698;9.116;2022-12-04T03:12:03;26.27;;;18.37;;
769;SDS011;368;48.698;9.116;2022-12-04T03:14:34;34.73;;;21.43;;
769;SDS011;368;48.698;9.116;2022-12-04T03:17:05;25.93;;;18.67;;
769;SDS011;368;48.698;9.116;2022-12-04T03:19:41;28.07;;;19.03;;
769;SDS011;368;48.698;9.116;2022-12-04T03:22:14;27.07;;;17.33;;
769;SDS011;368;48.698;9.116;2022-12-04T03:24:44;31.27;;;18.30;;
769;SDS011;368;48.698;9.116;2022-12-04T03:27:17;27.70;;;17.50;;
769;SDS011;368;48.698;9.116;2022-12-04T03:29:51;29.23;;;19.00;;
769;SDS011;368;48.698;9.116;2022-12-04T03:32:24;29.33;;;17.87;;
769;SDS011;368;48.698;9.116;2022-12-04T03:34:54;26.77;;;17.40;;
769;SDS011;368;48.698;9.116;2022-12-04T03:37:25;27.20;;;17.90;;
769;SDS011;368;48.698;9.116;2022-12-04T03:39:59;26.90;;;18.00;;
769;SDS011;368;48.698;9.116;2022-12-04T03:42:32;31.17;;;17.83;;
769;SDS011;368;48.698;9.116;2022-12-04T03:45:08;25.23;;;16.27;;
769;SDS011;368;48.698;9.116;2022-12-04T03:47:41;26.97;;;16.10;;
769;SDS011;368;48.698;9.116;2022-12-04T03:50:12;27.83;;;17.70;;
769;SDS011;368;48.698;9.116;2022-12-04T03:52:46;27.93;;;17.93;;
769;SDS011;368;48.698;9.116;2022-12-04T03:55:20;25.60;;;17.17;;
769;SDS011;368;48.698;9.116;2022-12-04T03:57:50;25.07;;;15.63;;
769;SDS011;368;48.698;9.116;2022-12-04T04:00:23;26.00;;;16.10;;
769;SDS011;368;48.698;9.116;2022-12-04T04:02:51;27.70;;;17.47;;
769;SDS011;368;48.698;9.116;2022-12-04T04:05:21;29.60;;;18.40;;
769;SDS011;368;48.698;9.116;2022-12-04T04:07:50;28.40;;;17.03;;
769;SDS011;368;48.698;9.116;2022-12-04T04:10:20;24.33;;;15.23;;
769;SDS011;368;48.698;9.116;2022-12-04T04:12:50;25.70;;;16.40;;
769;SDS011;368;48.698;9.116;2022-12-04T04:15:38;24.90;;;15.50;;
769;SDS011;368;48.698;9.116;2022-12-04T04:18:27;24.60;;;16.37;;
769;SDS011;368;48.698;9.116;2022-12-04T04:21:12;28.27;;;17.50;;
769;SDS011;368;48.698;9.116;2022-12-04T04:24:01;28.13;;;17.03;;
769;SDS011;368;48.698;9.116;2022-12-04T04:26:42;24.60;;;15.60;;
769;SDS011;368;48.698;9.116;2022-12-04T04:29:11;23.27;;;15.10;;
769;SDS011;368;48.698;9.116;2022-12-04T04:31:41;25.03;;;15.80;;
769;SDS011;368;48.698;9.116;2022-12-04T04:34:12;25.37;;;16.60;;
769;SDS011;368;48.698;9.116;2022-12-04T04:36:46;26.77;;;16.20;;
769;SDS011;368;48.698;9.116;2022-12-04T04:39:22;23.00;;;15.10;;
769;SDS011;368;48.698;9.116;2022-12-04T04:41:54;25.20;;;15.90;;
769;SDS011;368;48.698;9.116;2022-12-04T04:44:28;26.17;;;15.83;;
769;SDS011;368;48.698;9.116;2022-12-04T04:47:01;22.30;;;15.07;;
769;SDS011;368;48.698;9.116;2022-12-04T04:49:32;22.20;;;14.20;;
769;SDS011;368;48.698;9.116;2022-12-04T04:52:01;26.87;;;15.97;;
769;SDS011;368;48.698;9.116;2022-12-04T04:54:28;24.37;;;15.40;;
769;SDS011;368;48.698;9.116;2022-12-04T04:56:58;24.23;;;14.43;;
769;SDS011;368;48.698;9.116;2022-12-04T04:59:26;26.83;;;15.70;;
769;SDS011;368;48.698;9.116;2022-12-04T05:01:52;22.10;;;14.20;;
769;SDS011;368;48.698;9.116;2022-12-04T05:04:20;25.03;;;14.87;;
769;SDS011;368;48.698;9.116;2022-12-04T05:06:47;20.97;;;13.30;;
769;SDS011;368;48.698;9.116;2022-12-04T05:09:14;18.90;;;12.87;;
769;SDS011;368;48.698;9.116;2022-12-04T05:11:41;22.67;;;13.30;;
769;SDS011;368;48.698;9.116;2022-12-04T05:14:07;22.23;;;13.77;;
769;SDS011;368;48.698;9.116;2022-12-04T05:16:34;21.17;;;13.43;;
769;SDS011;368;48.698;9.116;2022-12-04T05:19:01;16.53;;;12.50;;
769;SDS011;368;48.698;9.116;2022-12-04T05:21:46;24.33;;;14.20;;
769;SDS011;368;48.698;9.116;2022-12-04T05:24:13;19.20;;;13.20;;
769;SDS011;368;48.698;9.116;2022-12-04T05:26:40;21.97;;;14.17;;
769;SDS011;368;48.698;9.116;2022-12-04T05:29:07;23.53;;;14.47;;
769;SDS011;368;48.698;9.116;2022-12-04T05:31:34;23.17;;;14.93;;
769;SDS011;368;48.698;9.116;2022-12-04T05:34:00;37.53;;;21.90;;
769;SDS011;368;48.698;9.116;2022-12-04T05:36:27;23.70;;;15.90;;
769;SDS011;368;48.698;9.116;2022-12-04T05:38:55;19.80;;;13.20;;
769;SDS011;368;48.698;9.116;2022-12-04T05:41:22;19.97;;;12.70;;
769;SDS011;368;48.698;9.116;2022-12-04T05:43:49;21.07;;;13.07;;
769;SDS011;368;48.698;9.116;2022-12-04T05:46:16;21.57;;;14.77;;
769;SDS011;368;48.698;9.116;2022-12-04T05:48:43;19.50;;;12.87;;
769;SDS011;368;48.698;9.116;2022-12-04T05:51:10;20.70;;;14.20;;
769;SDS011;368;48.698;9.116;2022-12-04T05:53:37;22.17;;;13.93;;
769;SDS011;368;48.698;9.116;2022-12-04T05:56:05;19.70;;;13.40;;
769;SDS011;368;48.698;9.116;2022-12-04T05:58:33;22.87;;;14.03;;
769;SDS011;368;48.698;9.116;2022-12-04T06:01:06;18.20;;;11.87;;
769;SDS011;368;48.698;9.116;2022-12-04T06:03:34;20.10;;;13.33;;
769;SDS011;368;48.698;9.116;2022-12-04T06:06:01;24.63;;;13.43;;
769;SDS011;368;48.698;9.116;2022-12-04T06:08:28;20.63;;;13.60;;
769;SDS011;368;48.698;9.116;2022-12-04T06:10:55;20.37;;;13.90;;
769;SDS011;368;48.698;9.116;2022-12-04T06:13:23;20.67;;;13.20;;
769;SDS011;368;48.698;9.116;2022-12-04T06:15:50;18.20;;;12.87;;
769;SDS011;368;48.698;9.116;2022-12-04T06:18:17;20.97;;;13.97;;
769;SDS011;368;48.698;9.116;2022-12-04T06:20:43;19.30;;;12.13;;
769;SDS011;368;48.698;9.116;2022-12-04T06:23:10;20.30;;;12.27;;
769;SDS011;368;48.698;9.116;2022-12-04T06:25:37;16.83;;;12.40;;
769;SDS011;368;48.698;9.116;2022-12-04T06:28:04;18.80;;;12.30;;
769;SDS011;368;48.698;9.116;2022-12-04T06:30:33;19.10;;;13.13;;
769;SDS011;368;48.698;9.116;2022-12-04T06:33:01;19.73;;;13.70;;
769;SDS011;368;48.698;9.116;2022-12-04T06:35:28;18.57;;;12.97;;
769;SDS011;368;48.698;9.116;2022-12-04T06:37:54;20.33;;;12.97;;
769;SDS011;368;48.698;9.116;2022-12-04T06:40:21;18.23;;;12.03;;
769;SDS011;368;48.698;9.116;2022-12-04T06:42:48;21.10;;;12.90;;
769;SDS011;368;48.698;9.116;2022-12-04T06:45:15;18.43;;;12.63;;
769;SDS011;368;48.698;9.116;2022-12-04T06:47:43;20.93;;;12.33;;
769;SDS011;368;48.698;9.116;2022-12-04T06:50:10;17.43;;;12.23;;
769;SDS011;368;48.698;9.116;2022-12-04T06:52:37;19.23;;;12.63;;
769;SDS011;368;48.698;9.116;2022-12-04T06:55:04;21.87;;;13.60;;
769;SDS011;368;48.698;9.116;2022-12-04T06:57:32;17.67;;;11.47;;
769;SDS011;368;48.698;9.116;2022-12-04T06:59:58;18.70;;;12.70;;
769;SDS011;368;48.698;9.116;2022-12-04T07:02:25;16.97;;;12.47;;
769;SDS011;368;48.698;9.116;2022-12-04T07:04:54;17.10;;;11.00;;
769;SDS011;368;48.698;9.116;2022-12-04T07:07:21;17.23;;;12.10;;
769;SDS011;368;48.698;9.116;2022-12-04T07:09:48;17.70;;;12.63;;
769;SDS011;368;48.698;9.116;2022-12-04T07:12:15;17.67;;;12.10;;
769;SDS011;368;48.698;9.116;2022-12-04T07:14:41;22.83;;;13.40;;
769;SDS011;368;48.698;9.116;2022-12-04T07:17:08;18.57;;;12.67;;
769;SDS011;368;48.698;9.116;2022-12-04T07:19:35;20.20;;;12.70;;
769;SDS011;368;48.698;9.116;2022-12-04T07:22:04;21.83;;;13.67;;
769;SDS011;368;48.698;9.116;2022-12-04T07:24:32;22.07;;;14.83;;
769;SDS011;368;48.698;9.116;2022-12-04T07:27:00;19.27;;;12.47;;
769;SDS011;368;48.698;9.116;2022-12-04T07:29:27;20.83;;;13.70;;
769;SDS011;368;48.698;9.116;2022-12-04T07:31:54;25.50;;;13.50;;
769;SDS011;368;48.698;9.116;2022-12-04T07:34:21;20.60;;;12.60;;
769;SDS011;368;48.698;9.116;2022-12-04T07:36:47;19.33;;;13.67;;
769;SDS011;368;48.698;9.116;2022-12-04T07:39:16;21.57;;;14.73;;
769;SDS011;368;48.698;9.116;2022-12-04T07:41:42;23.83;;;14.80;;
769;SDS011;368;48.698;9.116;2022-12-04T07:44:09;19.63;;;13.70;;
769;SDS011;368;48.698;9.116;2022-12-04T07:46:36;23.07;;;14.60;;
769;SDS011;368;48.698;9.116;2022-12-04T07:49:03;22.47;;;13.93;;
769;SDS011;368;48.698;9.116;2022-12-04T07:51:29;20.53;;;14.30;;
769;SDS011;368;48.698;9.116;2022-12-04T07:53:56;22.50;;;15.37;;
769;SDS011;368;48.698;9.116;2022-12-04T07:56:25;20.60;;;14.07;;
769;SDS011;368;48.698;9.116;2022-12-04T07:58:51;25.80;;;15.83;;
769;SDS011;368;48.698;9.116;2022-12-04T08:01:19;25.73;;;15.47;;
769;SDS011;368;48.698;9.116;2022-12-04T08:03:48;25.93;;;15.03;;
769;SDS011;368;48.698;9.116;2022-12-04T08:06:17;22.03;;;15.33;;
769;SDS011;368;48.698;9.116;2022-12-04T08:08:46;22.57;;;15.27;;
769;SDS011;368;48.698;9.116;2022-12-04T08:11:13;22.47;;;14.60;;
769;SDS011;368;48.698;9.116;2022-12-04T08:13:43;24.47;;;15.30;;
769;SDS011;368;48.698;9.116;2022-12-04T08:16:10;25.60;;;17.30;;
769;SDS011;368;48.698;9.116;2022-12-04T08:18:38;22.90;;;14.90;;
769;SDS011;368;48.698;9.116;2022-12-04T08:21:05;27.50;;;16.30;;
769;SDS011;368;48.698;9.116;2022-12-04T08:23:34;25.60;;;16.90;;
769;SDS011;368;48.698;9.116;2022-12-04T08:26:01;29.17;;;17.67;;
769;SDS011;368;48.698;9.116;2022-12-04T08:28:30;25.87;;;16.10;;
769;SDS011;368;48.698;9.116;2022-12-04T08:31:02;23.83;;;16.23;;
769;SDS011;368;48.698;9.116;2022-12-04T08:33:29;23.33;;;14.77;;
769;SDS011;368;48.698;9.116;2022-12-04T08:35:57;20.77;;;14.00;;
769;SDS011;368;48.698;9.116;2022-12-04T08:38:24;23.17;;;15.03;;
769;SDS011;368;48.698;9.116;2022-12-04T08:40:50;27.83;;;14.47;;
769;SDS011;368;48.698;9.116;2022-12-04T08:43:17;24.03;;;16.00;;
769;SDS011;368;48.698;9.116;2022-12-04T08:45:52;23.83;;;14.93;;
769;SDS011;368;48.698;9.116;2022-12-04T08:48:23;26.20;;;15.83;;
769;SDS011;368;48.698;9.116;2022-12-04T08:50:51;22.73;;;14.80;;
769;SDS011;368;48.698;9.116;2022-12-04T08:53:17;20.33;;;13.80;;
769;SDS011;368;48.698;9.116;2022-12-04T08:55:45;24.70;;;15.20;;
769;SDS011;368;48.698;9.116;2022-12-04T08:58:11;26.27;;;15.93;;
769;SDS011;368;48.698;9.116;2022-12-04T09:00:38;23.60;;;15.87;;
769;SDS011;368;48.698;9.116;2022-12-04T09:03:07;26.67;;;14.73;;
769;SDS011;368;48.698;9.116;2022-12-04T09:05:38;23.93;;;15.70;;
769;SDS011;368;48.698;9.116;2022-12-04T09:08:05;25.57;;;15.40;;
769;SDS011;368;48.698;9.116;2022-12-04T09:10:33;27.30;;;16.27;;
769;SDS011;368;48.698;9.116;2022-12-04T09:13:00;24.17;;;15.70;;
769;SDS011;368;48.698;9.116;2022-12-04T09:15:27;23.47;;;13.57;;
769;SDS011;368;48.698;9.116;2022-12-04T09:17:54;24.90;;;14.63;;
769;SDS011;368;48.698;9.116;2022-12-04T09:20:20;25.40;;;14.70;;
769;SDS011;368;48.698;9.116;2022-12-04T09:22:49;26.80;;;15.50;;
769;SDS011;368;48.698;9.116;2022-12-04T09:25:16;21.20;;;14.10;;
769;SDS011;368;48.698;9.116;2022-12-04T09:27:43;25.40;;;13.93;;
769;SDS011;368;48.698;9.116;2022-12-04T09:30:10;24.97;;;14.17;;
769;SDS011;368;48.698;9.116;2022-12-04T09:32:38;19.40;;;14.20;;
769;SDS011;368;48.698;9.116;2022-12-04T09:35:05;21.07;;;14.10;;
769;SDS011;368;48.698;9.116;2022-12-04T09:37:32;24.90;;;14.77;;
769;SDS011;368;48.698;9.116;2022-12-04T09:40:02;24.30;;;15.30;;
769;SDS011;368;48.698;9.116;2022-12-04T09:42:34;24.40;;;14.90;;
769;SDS011;368;48.698;9.116;2022-12-04T09:45:08;26.13;;;14.80;;
769;SDS011;368;48.698;9.116;2022-12-04T09:47:39;23.33;;;14.23;;
769;SDS011;368;48.698;9.116;2022-12-04T09:50:10;22.90;;;14.23;;
769;SDS011;368;48.698;9.116;2022-12-04T09:52:43;23.50;;;15.43;;
769;SDS011;368;48.698;9.116;2022-12-04T09:55:20;23.63;;;15.27;;
769;SDS011;368;48.698;9.116;2022-12-04T09:57:50;20.27;;;13.50;;
769;SDS011;368;48.698;9.116;2022-12-04T10:00:19;22.20;;;14.30;;
769;SDS011;368;48.698;9.116;2022-12-04T10:02:48;26.47;;;15.77;;
769;SDS011;368;48.698;9.116;2022-12-04T10:05:18;26.90;;;15.17;;
769;SDS011;368;48.698;9.116;2022-12-04T10:07:54;25.77;;;14.97;;
769;SDS011;368;48.698;9.116;2022-12-04T10:10:34;23.23;;;15.27;;
769;SDS011;368;48.698;9.116;2022-12-04T10:13:05;23.83;;;14.70;;
769;SDS011;368;48.698;9.116;2022-12-04T10:15:52;20.70;;;13.33;;
769;SDS011;368;48.698;9.116;2022-12-04T10:18:27;22.57;;;13.40;;
769;SDS011;368;48.698;9.116;2022-12-04T10:21:15;26.10;;;16.13;;
769;SDS011;368;48.698;9.116;2022-12-04T10:23:54;25.93;;;15.13;;
769;SDS011;368;48.698;9.116;2022-12-04T10:26:34;25.53;;;17.07;;
769;SDS011;368;48.698;9.116;2022-12-04T10:29:06;26.03;;;17.80;;
769;SDS011;368;48.698;9.116;2022-12-04T10:31:38;24.80;;;15.77;;
769;SDS011;368;48.698;9.116;2022-12-04T10:34:11;29.13;;;17.70;;
769;SDS011;368;48.698;9.116;2022-12-04T10:36:42;23.83;;;16.50;;
769;SDS011;368;48.698;9.116;2022-12-04T10:39:15;27.00;;;17.83;;
769;SDS011;368;48.698;9.116;2022-12-04T10:41:50;22.17;;;16.43;;
769;SDS011;368;48.698;9.116;2022-12-04T10:44:22;25.83;;;15.70;;
769;SDS011;368;48.698;9.116;2022-12-04T10:46:49;23.67;;;16.43;;
769;SDS011;368;48.698;9.116;2022-12-04T10:49:20;21.30;;;16.97;;
769;SDS011;368;48.698;9.116;2022-12-04T10:51:49;20.30;;;15.03;;
769;SDS011;368;48.698;9.116;2022-12-04T10:54:18;22.60;;;15.97;;
769;SDS011;368;48.698;9.116;2022-12-04T10:56:51;24.80;;;17.13;;
769;SDS011;368;48.698;9.116;2022-12-04T10:59:19;27.67;;;17.90;;
769;SDS011;368;48.698;9.116;2022-12-04T11:01:47;25.23;;;16.23;;
769;SDS011;368;48.698;9.116;2022-12-04T11:04:18;25.17;;;16.47;;
769;SDS011;368;48.698;9.116;2022-12-04T11:06:47;30.07;;;18.37;;
769;SDS011;368;48.698;9.116;2022-12-04T11:09:19;27.27;;;18.87;;
769;SDS011;368;48.698;9.116;2022-12-04T11:11:48;27.00;;;18.60;;
769;SDS011;368;48.698;9.116;2022-12-04T11:14:18;25.93;;;16.50;;
769;SDS011;368;48.698;9.116;2022-12-04T11:16:47;30.43;;;18.70;;
769;SDS011;368;48.698;9.116;2022-12-04T11:19:25;30.53;;;17.83;;
769;SDS011;368;48.698;9.116;2022-12-04T11:21:54;26.87;;;18.17;;
769;SDS011;368;48.698;9.116;2022-12-04T11:24:31;27.17;;;17.80;;
769;SDS011;368;48.698;9.116;2022-12-04T11:27:01;31.57;;;21.20;;
769;SDS011;368;48.698;9.116;2022-12-04T11:29:29;27.47;;;17.03;;
769;SDS011;368;48.698;9.116;2022-12-04T11:32:00;31.17;;;19.47;;
769;SDS011;368;48.698;9.116;2022-12-04T11:34:32;28.43;;;19.23;;
769;SDS011;368;48.698;9.116;2022-12-04T11:37:01;26.83;;;17.70;;
769;SDS011;368;48.698;9.116;2022-12-04T11:39:29;29.67;;;19.47;;
769;SDS011;368;48.698;9.116;2022-12-04T11:42:04;29.77;;;19.50;;
769;SDS011;368;48.698;9.116;2022-12-04T11:44:48;25.27;;;17.80;;
769;SDS011;368;48.698;9.116;2022-12-04T11:47:17;28.10;;;16.10;;
769;SDS011;368;48.698;9.116;2022-12-04T11:49:55;27.90;;;17.67;;
769;SDS011;368;48.698;9.116;2022-12-04T11:52:27;29.07;;;17.60;;
769;SDS011;368;48.698;9.116;2022-12-04T11:55:06;29.30;;;18.30;;
769;SDS011;368;48.698;9.116;2022-12-04T11:57:42;24.90;;;17.60;;
769;SDS011;368;48.698;9.116;2022-12-04T12:00:14;27.10;;;18.43;;
769;SDS011;368;48.698;9.116;2022-12-04T12:03:00;27.27;;;18.40;;
769;SDS011;368;48.698;9.116;2022-12-04T12:05:38;31.43;;;20.87;;
769;SDS011;368;48.698;9.116;2022-12-04T12:08:36;31.60;;;20.43;;
769;SDS011;368;48.698;9.116;2022-12-04T12:11:14;28.10;;;20.13;;
769;SDS011;368;48.698;9.116;2022-12-04T12:13:49;32.47;;;19.80;;
769;SDS011;368;48.698;9.116;2022-12-04T12:16:25;32.67;;;20.20;;
769;SDS011;368;48.698;9.116;2022-12-04T12:19:03;31.63;;;22.13;;
769;SDS011;368;48.698;9.116;2022-12-04T12:21:43;33.87;;;21.13;;
769;SDS011;368;48.698;9.116;2022-12-04T12:24:22;34.43;;;21.43;;
769;SDS011;368;48.698;9.116;2022-12-04T12:26:53;36.27;;;22.80;;
769;SDS011;368;48.698;9.116;2022-12-04T12:29:40;31.97;;;20.77;;
769;SDS011;368;48.698;9.116;2022-12-04T12:32:19;32.70;;;21.07;;
769;SDS011;368;48.698;9.116;2022-12-04T12:34:56;31.93;;;21.00;;
769;SDS011;368;48.698;9.116;2022-12-04T12:37:24;36.10;;;22.87;;
769;SDS011;368;48.698;9.116;2022-12-04T12:40:02;37.17;;;25.20;;
769;SDS011;368;48.698;9.116;2022-12-04T12:42:37;31.30;;;21.93;;
769;SDS011;368;48.698;9.116;2022-12-04T12:45:17;36.10;;;22.87;;
769;SDS011;368;48.698;9.116;2022-12-04T12:47:53;32.70;;;21.10;;
769;SDS011;368;48.698;9.116;2022-12-04T12:50:25;36.30;;;24.07;;
769;SDS011;368;48.698;9.116;2022-12-04T12:52:58;37.40;;;22.37;;
769;SDS011;368;48.698;9.116;2022-12-04T12:55:30;34.20;;;22.13;;
769;SDS011;368;48.698;9.116;2022-12-04T12:58:03;32.63;;;21.30;;
769;SDS011;368;48.698;9.116;2022-12-04T13:00:37;33.10;;;22.30;;
769;SDS011;368;48.698;9.116;2022-12-04T13:03:11;27.73;;;19.83;;
769;SDS011;368;48.698;9.116;2022-12-04T13:05:50;31.50;;;20.10;;
769;SDS011;368;48.698;9.116;2022-12-04T13:08:21;33.07;;;21.80;;
769;SDS011;368;48.698;9.116;2022-12-04T13:10:52;39.93;;;28.43;;
769;SDS011;368;48.698;9.116;2022-12-04T13:13:27;38.67;;;24.27;;
769;SDS011;368;48.698;9.116;2022-12-04T13:16:02;43.50;;;26.93;;
769;SDS011;368;48.698;9.116;2022-12-04T13:18:33;41.50;;;26.27;;
769;SDS011;368;48.698;9.116;2022-12-04T13:21:04;47.63;;;29.63;;
769;SDS011;368;48.698;9.116;2022-12-04T13:23:37;43.93;;;23.73;;
769;SDS011;368;48.698;9.116;2022-12-04T13:26:13;35.53;;;22.37;;
769;SDS011;368;48.698;9.116;2022-12-04T13:28:51;35.53;;;23.80;;
769;SDS011;368;48.698;9.116;2022-12-04T13:31:26;35.70;;;22.70;;
769;SDS011;368;48.698;9.116;2022-12-04T13:34:05;34.83;;;22.37;;
769;SDS011;368;48.698;9.116;2022-12-04T13:37:00;40.07;;;23.30;;
769;SDS011;368;48.698;9.116;2022-12-04T13:42:47;37.07;;;22.77;;
769;SDS011;368;48.698;9.116;2022-12-04T13:45:22;36.67;;;23.43;;
769;SDS011;368;48.698;9.116;2022-12-04T13:47:56;40.23;;;26.90;;
769;SDS011;368;48.698;9.116;2022-12-04T13:50:25;45.27;;;30.07;;
769;SDS011;368;48.698;9.116;2022-12-04T13:52:54;48.13;;;32.37;;
769;SDS011;368;48.698;9.116;2022-12-04T13:55:23;35.40;;;24.37;;
769;SDS011;368;48.698;9.116;2022-12-04T13:57:52;38.30;;;24.17;;
769;SDS011;368;48.698;9.116;2022-12-04T14:00:23;43.40;;;25.67;;
769;SDS011;368;48.698;9.116;2022-12-04T14:02:57;44.33;;;23.20;;
769;SDS011;368;48.698;9.116;2022-12-04T14:05:27;37.93;;;23.90;;
769;SDS011;368;48.698;9.116;2022-12-04T14:08:00;37.37;;;23.10;;
769;SDS011;368;48.698;9.116;2022-12-04T14:10:30;40.57;;;23.70;;
769;SDS011;368;48.698;9.116;2022-12-04T14:12:59;32.57;;;21.97;;
769;SDS011;368;48.698;9.116;2022-12-04T14:15:30;33.27;;;23.93;;
769;SDS011;368;48.698;9.116;2022-12-04T14:18:01;40.57;;;27.80;;
769;SDS011;368;48.698;9.116;2022-12-04T14:20:31;33.30;;;22.50;;
769;SDS011;368;48.698;9.116;2022-12-04T14:23:06;39.60;;;22.60;;
769;SDS011;368;48.698;9.116;2022-12-04T14:25:35;39.97;;;22.80;;
769;SDS011;368;48.698;9.116;2022-12-04T14:28:21;39.10;;;23.47;;
769;SDS011;368;48.698;9.116;2022-12-04T14:31:00;51.77;;;29.00;;
769;SDS011;368;48.698;9.116;2022-12-04T14:33:44;32.43;;;21.07;;
769;SDS011;368;48.698;9.116;2022-12-04T14:36:17;38.00;;;23.40;;
769;SDS011;368;48.698;9.116;2022-12-04T14:38:49;34.33;;;22.17;;
769;SDS011;368;48.698;9.116;2022-12-04T14:41:24;30.57;;;20.53;;
769;SDS011;368;48.698;9.116;2022-12-04T14:43:52;37.00;;;21.30;;
769;SDS011;368;48.698;9.116;2022-12-04T14:46:22;33.13;;;21.60;;
769;SDS011;368;48.698;9.116;2022-12-04T14:48:58;28.07;;;18.53;;
769;SDS011;368;48.698;9.116;2022-12-04T14:51:32;30.33;;;20.10;;
769;SDS011;368;48.698;9.116;2022-12-04T14:54:03;38.90;;;24.90;;
769;SDS011;368;48.698;9.116;2022-12-04T14:56:39;34.03;;;20.60;;
769;SDS011;368;48.698;9.116;2022-12-04T14:59:15;35.13;;;20.97;;
769;SDS011;368;48.698;9.116;2022-12-04T15:01:44;29.20;;;18.63;;
769;SDS011;368;48.698;9.116;2022-12-04T15:04:13;29.27;;;19.13;;
769;SDS011;368;48.698;9.116;2022-12-04T15:06:47;38.07;;;29.93;;
769;SDS011;368;48.698;9.116;2022-12-04T15:09:16;34.67;;;23.63;;
769;SDS011;368;48.698;9.116;2022-12-04T15:12:11;32.20;;;22.60;;
769;SDS011;368;48.698;9.116;2022-12-04T15:15:01;30.97;;;19.17;;
769;SDS011;368;48.698;9.116;2022-12-04T15:17:36;28.70;;;19.10;;
769;SDS011;368;48.698;9.116;2022-12-04T15:20:09;26.37;;;18.10;;
769;SDS011;368;48.698;9.116;2022-12-04T15:22:40;25.73;;;16.67;;
769;SDS011;368;48.698;9.116;2022-12-04T15:25:12;28.20;;;16.63;;
769;SDS011;368;48.698;9.116;2022-12-04T15:27:45;29.43;;;17.73;;
769;SDS011;368;48.698;9.116;2022-12-04T15:30:14;28.90;;;16.80;;
769;SDS011;368;48.698;9.116;2022-12-04T15:32:43;26.93;;;16.67;;
769;SDS011;368;48.698;9.116;2022-12-04T15:35:14;30.60;;;18.27;;
769;SDS011;368;48.698;9.116;2022-12-04T15:37:45;30.30;;;18.60;;
769;SDS011;368;48.698;9.116;2022-12-04T15:40:17;28.53;;;17.43;;
769;SDS011;368;48.698;9.116;2022-12-04T15:42:46;26.23;;;17.93;;
769;SDS011;368;48.698;9.116;2022-12-04T15:48:00;27.13;;;17.00;;